Time;durP1;ratioP1;P1;durP2;ratioP2;P2;SDS_P1;SDS_P2;PMS_P1;PMS_P2;Temp;Humidity;BMP_temperature;BMP_pressure;BME280_temperature;BME280_humidity;BME280_pressure;Samples;Min_cycle;Max_cycle;Signal;HPM_P1;HPM_P2
2024/01/14 00:02:12;;;;;;;;;;;;;;;8.92;46.57;99939.00;4959563;28;106636;-66
2024/01/14 00:04:38;;;;;;;;;;;;;;;8.92;46.94;99930.94;4935142;28;99497;-70
2024/01/14 00:07:04;;;;;;;;;;;;;;;8.92;47.19;99914.81;4946260;28;122138;-70
2024/01/14 00:09:30;;;;;;;;;;;;;;;8.92;47.25;99918.31;4933022;28;98997;-65
2024/01/14 00:11:56;;;;;;;;;;;;;;;8.93;46.97;99911.06;4945365;28;99687;-65
2024/01/14 00:14:22;;;;;;;;;;;;;;;8.93;47.05;99903.78;4929040;28;98422;-65
2024/01/14 00:16:48;;;;;;;;;;;;;;;8.92;47.00;99888.75;4931458;28;97979;-65
2024/01/14 00:19:15;;;;;;;;;;;;;;;8.94;46.38;99888.47;4963015;28;98091;-71
2024/01/14 00:21:41;;;;;;;;;;;;;;;8.93;46.53;99882.28;4951625;28;101537;-65
2024/01/14 00:24:07;;;;;;;;;;;;;;;8.92;46.48;99872.63;4926806;28;99355;-65
2024/01/14 00:26:33;;;;;;;;;;;;;;;8.93;46.85;99878.81;4933324;28;98513;-65
2024/01/14 00:29:00;;;;;;;;;;;;;;;8.92;47.09;99866.41;4944304;28;98286;-65
2024/01/14 00:31:26;;;;;;;;;;;;;;;8.94;47.06;99877.72;4941141;28;99356;-69
2024/01/14 00:33:52;;;;;;;;;;;;;;;8.93;47.19;99865.38;4946258;28;98184;-65
2024/01/14 00:36:19;;;;;;;;;;;;;;;8.93;47.00;99868.84;4921394;28;98345;-69
2024/01/14 00:38:45;;;;;;;;;;;;;;;8.93;47.17;99857.31;4928501;28;98247;-71
2024/01/14 00:41:11;;;;;;;;;;;;;;;8.92;46.93;99851.13;4941850;28;98229;-65
2024/01/14 00:43:37;;;;;;;;;;;;;;;8.93;46.27;99858.09;4922047;28;98074;-70
2024/01/14 00:46:04;;;;;;;;;;;;;;;8.93;47.00;99860.00;4942300;28;98372;-65
2024/01/14 00:48:30;;;;;;;;;;;;;;;8.92;46.86;99856.50;4938384;28;99386;-70
2024/01/14 00:50:56;;;;;;;;;;;;;;;8.93;46.89;99855.41;4923201;28;98302;-69
2024/01/14 00:53:22;;;;;;;;;;;;;;;8.94;47.12;99864.28;4961390;28;100149;-70
2024/01/14 00:55:49;;;;;;;;;;;;;;;8.92;46.63;99861.88;4925128;28;98280;-65
2024/01/14 00:58:15;;;;;;;;;;;;;;;8.93;46.93;99852.72;4944369;28;98196;-70
2024/01/14 01:00:42;;;;;;;;;;;;;;;8.93;47.16;99862.69;4927662;28;98328;-69
2024/01/14 01:03:08;;;;;;;;;;;;;;;8.91;46.62;99851.38;4921598;28;98155;-69
2024/01/14 01:05:34;;;;;;;;;;;;;;;8.93;46.97;99844.66;4929581;28;98028;-65
2024/01/14 01:08:01;;;;;;;;;;;;;;;8.92;46.53;99851.13;4941900;28;97898;-69
2024/01/14 01:10:27;;;;;;;;;;;;;;;8.92;47.09;99856.50;4923248;28;99526;-65
2024/01/14 01:12:53;;;;;;;;;;;;;;;8.92;46.67;99829.63;4941861;28;99929;-65
2024/01/14 01:15:19;;;;;;;;;;;;;;;8.91;46.71;99827.97;4924612;28;99118;-69
2024/01/14 01:17:45;;;;;;;;;;;;;;;8.91;46.87;99846.81;4925961;28;98363;-69
2024/01/14 01:20:11;;;;;;;;;;;;;;;8.91;46.73;99838.75;4928409;28;97965;-69
2024/01/14 01:22:37;;;;;;;;;;;;;;;8.91;46.90;99832.56;4944462;28;98319;-69
2024/01/14 01:25:04;;;;;;;;;;;;;;;8.91;46.54;99824.50;4939821;28;116042;-65
2024/01/14 01:27:30;;;;;;;;;;;;;;;8.90;46.87;99823.69;4925957;28;98025;-65
2024/01/14 01:29:57;;;;;;;;;;;;;;;8.90;47.09;99830.97;4922157;28;98269;-70
2024/01/14 01:32:23;;;;;;;;;;;;;;;8.89;46.95;99827.47;4940520;28;98382;-70
2024/01/14 01:34:49;;;;;;;;;;;;;;;8.89;47.29;99819.41;4925184;28;99779;-65
2024/01/14 01:37:15;;;;;;;;;;;;;;;8.89;46.63;99807.84;4930252;28;98964;-65
2024/01/14 01:39:41;;;;;;;;;;;;;;;8.89;46.86;99805.97;4927081;28;99710;-69
2024/01/14 01:42:07;;;;;;;;;;;;;;;8.89;46.83;99807.84;4940802;28;98291;-65
2024/01/14 01:44:33;;;;;;;;;;;;;;;8.89;46.81;99816.72;4940321;28;98020;-69
2024/01/14 01:47:00;;;;;;;;;;;;;;;8.89;46.63;99797.09;4924854;28;100197;-65
2024/01/14 01:49:26;;;;;;;;;;;;;;;8.88;46.86;99798.94;4922581;28;98132;-68
2024/01/14 01:51:52;;;;;;;;;;;;;;;8.89;46.97;99799.78;4934788;28;99500;-68
2024/01/14 01:54:22;;;;;;;;;;;;;;;8.87;46.49;99796.56;4922948;28;115566;-70
2024/01/14 01:56:49;;;;;;;;;;;;;;;8.88;46.75;99796.28;4940938;28;98318;-64
2024/01/14 01:59:16;;;;;;;;;;;;;;;8.88;46.85;99800.84;4924498;28;98155;-70
2024/01/14 02:01:43;;;;;;;;;;;;;;;8.88;46.36;99798.16;4956722;28;99738;-69
2024/01/14 02:04:09;;;;;;;;;;;;;;;8.87;46.47;99773.16;4940022;28;98486;-65
2024/01/14 02:06:37;;;;;;;;;;;;;;;8.88;47.34;99782.03;4960561;28;99970;-69
2024/01/14 02:09:05;;;;;;;;;;;;;;;8.88;46.68;99784.72;4923688;28;99512;-69
2024/01/14 02:11:33;;;;;;;;;;;;;;;8.87;47.31;99775.06;4924214;28;98244;-69
2024/01/14 02:13:59;;;;;;;;;;;;;;;8.85;46.45;99773.44;4937133;28;98135;-69
2024/01/14 02:16:25;;;;;;;;;;;;;;;8.85;46.63;99778.81;4924582;28;98520;-65
2024/01/14 02:18:51;;;;;;;;;;;;;;;8.87;46.94;99777.72;4940951;28;98391;-70
2024/01/14 02:21:22;;;;;;;;;;;;;;;8.85;46.84;99775.34;4926642;28;118929;-65
2024/01/14 02:24:00;;;;;;;;;;;;;;;8.85;46.68;99767.28;4944165;28;98028;-65
2024/01/14 02:26:26;;;;;;;;;;;;;;;8.84;46.58;99769.16;4946099;28;97906;-70
2024/01/14 02:28:52;;;;;;;;;;;;;;;8.84;46.75;99760.25;4928585;28;98231;-68
2024/01/14 02:31:19;;;;;;;;;;;;;;;8.83;46.85;99754.09;4934796;28;116728;-65
2024/01/14 02:33:45;;;;;;;;;;;;;;;8.84;47.21;99761.09;4931473;28;98107;-70
2024/01/14 02:36:11;;;;;;;;;;;;;;;8.83;46.64;99751.41;4938644;28;98373;-65
2024/01/14 02:38:37;;;;;;;;;;;;;;;8.84;47.13;99761.09;4944381;28;98475;-65
2024/01/14 02:41:03;;;;;;;;;;;;;;;8.83;47.01;99740.66;4936668;28;98829;-70
2024/01/14 02:43:29;;;;;;;;;;;;;;;8.84;47.31;99733.38;4928987;28;98458;-70
2024/01/14 02:45:55;;;;;;;;;;;;;;;8.83;46.99;99734.47;4924812;28;98141;-69
2024/01/14 02:48:21;;;;;;;;;;;;;;;8.83;46.80;99742.53;4929616;28;98028;-70
2024/01/14 02:50:47;;;;;;;;;;;;;;;8.84;46.39;99744.97;4929686;28;123037;-65
2024/01/14 02:53:13;;;;;;;;;;;;;;;8.83;46.56;99737.16;4928124;28;105281;-65
2024/01/14 02:55:39;;;;;;;;;;;;;;;8.83;46.85;99737.97;4959123;28;98318;-70
2024/01/14 02:58:05;;;;;;;;;;;;;;;8.83;47.04;99743.34;4928932;28;102638;-69
2024/01/14 03:00:31;;;;;;;;;;;;;;;8.84;47.08;99744.13;4930703;28;98467;-65
2024/01/14 03:02:57;;;;;;;;;;;;;;;8.83;47.00;99731.78;4926031;28;98359;-65
2024/01/14 03:05:23;;;;;;;;;;;;;;;8.83;46.49;99742.53;4940519;28;98185;-64
2024/01/14 03:07:50;;;;;;;;;;;;;;;8.82;46.68;99730.19;4946629;28;98587;-64
2024/01/14 03:10:16;;;;;;;;;;;;;;;8.81;47.13;99734.75;4930042;28;98079;-69
2024/01/14 03:12:43;;;;;;;;;;;;;;;8.82;46.69;99730.97;4942725;28;98272;-64
2024/01/14 03:15:09;;;;;;;;;;;;;;;8.82;46.86;99730.19;4929426;28;98290;-69
2024/01/14 03:17:35;;;;;;;;;;;;;;;8.81;46.73;99734.75;4945895;28;105450;-69
2024/01/14 03:20:02;;;;;;;;;;;;;;;8.81;46.71;99733.97;4944242;28;98141;-69
2024/01/14 03:22:28;;;;;;;;;;;;;;;8.81;47.02;99725.91;4928870;28;97970;-64
2024/01/14 03:24:54;;;;;;;;;;;;;;;8.82;47.09;99727.50;4926778;28;97966;-69
2024/01/14 03:27:20;;;;;;;;;;;;;;;8.80;46.68;99725.09;4928241;28;99513;-64
2024/01/14 03:29:46;;;;;;;;;;;;;;;8.81;47.04;99725.91;4929856;28;99977;-69
2024/01/14 03:32:12;;;;;;;;;;;;;;;8.80;46.67;99716.19;4923535;28;111639;-69
2024/01/14 03:34:39;;;;;;;;;;;;;;;8.80;46.69;99724.25;4945689;28;97836;-64
2024/01/14 03:37:05;;;;;;;;;;;;;;;8.79;46.96;99731.53;4942200;28;99581;-69
2024/01/14 03:39:31;;;;;;;;;;;;;;;8.80;46.71;99725.09;4928418;28;100470;-65
2024/01/14 03:41:57;;;;;;;;;;;;;;;8.78;47.06;99721.84;4924278;28;123008;-69
2024/01/14 03:44:23;;;;;;;;;;;;;;;8.79;46.91;99723.47;4924544;28;98510;-69
2024/01/14 03:46:49;;;;;;;;;;;;;;;8.80;47.05;99718.88;4929215;28;98057;-64
2024/01/14 03:49:15;;;;;;;;;;;;;;;8.79;46.81;99728.03;4943908;28;98185;-65
2024/01/14 03:51:41;;;;;;;;;;;;;;;8.78;46.68;99716.47;4926967;28;103310;-64
2024/01/14 03:54:07;;;;;;;;;;;;;;;8.79;46.96;99717.28;4928389;28;98065;-69
2024/01/14 03:56:33;;;;;;;;;;;;;;;8.78;46.80;99716.47;4926992;28;113038;-64
2024/01/14 03:58:59;;;;;;;;;;;;;;;8.78;47.14;99721.06;4929741;28;98244;-64
2024/01/14 04:01:25;;;;;;;;;;;;;;;8.78;47.33;99711.09;4943590;28;101195;-64
2024/01/14 04:03:51;;;;;;;;;;;;;;;8.78;47.36;99726.44;4928320;28;98850;-70
2024/01/14 04:06:22;;;;;;;;;;;;;;;8.78;46.70;99719.16;4945034;28;98285;-69
2024/01/14 04:08:48;;;;;;;;;;;;;;;8.78;47.03;99715.69;4945737;28;98516;-69
2024/01/14 04:11:14;;;;;;;;;;;;;;;8.78;47.17;99713.78;4958371;28;106206;-69
2024/01/14 04:13:40;;;;;;;;;;;;;;;8.79;46.72;99717.28;4945157;28;98267;-69
2024/01/14 04:16:07;;;;;;;;;;;;;;;8.78;46.51;99713.00;4966141;28;98085;-69
2024/01/14 04:18:35;;;;;;;;;;;;;;;8.78;46.97;99713.78;4934633;28;98448;-69
2024/01/14 04:21:01;;;;;;;;;;;;;;;8.79;47.37;99714.59;4925093;28;97985;-64
2024/01/14 04:23:27;;;;;;;;;;;;;;;8.80;46.55;99719.72;4939302;28;98117;-69
2024/01/14 04:25:52;;;;;;;;;;;;;;;8.80;46.59;99716.19;4942679;28;98113;-64
2024/01/14 04:28:18;;;;;;;;;;;;;;;8.81;46.52;99718.63;4942145;28;106907;-69
2024/01/14 04:30:45;;;;;;;;;;;;;;;8.81;47.08;99720.53;4927917;28;98042;-65
2024/01/14 04:33:11;;;;;;;;;;;;;;;8.81;46.85;99721.31;4925785;28;99296;-64
2024/01/14 04:35:37;;;;;;;;;;;;;;;8.82;46.75;99720.22;4927791;28;100112;-65
2024/01/14 04:38:03;;;;;;;;;;;;;;;8.82;46.31;99720.22;4935475;28;97996;-69
2024/01/14 04:40:29;;;;;;;;;;;;;;;8.83;46.92;99723.72;4938941;28;99287;-65
2024/01/14 04:42:55;;;;;;;;;;;;;;;8.84;46.87;99720.78;4927664;28;99697;-64
2024/01/14 04:45:21;;;;;;;;;;;;;;;8.84;47.21;99711.88;4926194;28;98651;-69
2024/01/14 04:47:47;;;;;;;;;;;;;;;8.84;46.83;99709.19;4940446;28;99235;-69
2024/01/14 04:50:14;;;;;;;;;;;;;;;8.84;46.97;99714.56;4928408;28;98105;-69
2024/01/14 04:52:40;;;;;;;;;;;;;;;8.84;46.40;99711.88;4926928;28;99554;-69
2024/01/14 04:55:07;;;;;;;;;;;;;;;8.84;47.20;99712.72;4954404;28;98023;-69
2024/01/14 04:57:33;;;;;;;;;;;;;;;8.85;47.00;99706.25;4910076;28;98661;-64
2024/01/14 04:59:59;;;;;;;;;;;;;;;8.85;47.10;99703.56;4939609;28;113971;-70
2024/01/14 05:02:25;;;;;;;;;;;;;;;8.83;46.68;99700.34;4926864;28;98225;-65
2024/01/14 05:04:51;;;;;;;;;;;;;;;8.85;46.81;99703.56;4923120;28;98375;-66
2024/01/14 05:07:17;;;;;;;;;;;;;;;8.87;46.48;99708.66;4941759;28;98095;-66
2024/01/14 05:09:43;;;;;;;;;;;;;;;8.86;46.96;99704.38;4919917;28;108616;-66
2024/01/14 05:12:09;;;;;;;;;;;;;;;8.86;46.97;99709.75;4940226;28;97916;-71
2024/01/14 05:14:36;;;;;;;;;;;;;;;8.87;46.69;99711.34;4943211;28;99597;-70
2024/01/14 05:17:02;;;;;;;;;;;;;;;8.88;46.62;99698.72;4928257;28;100668;-71
2024/01/14 05:19:28;;;;;;;;;;;;;;;8.88;46.69;99696.81;4943111;28;99357;-70
2024/01/14 05:21:54;;;;;;;;;;;;;;;8.89;46.68;99697.66;4941909;28;98218;-66
2024/01/14 05:24:20;;;;;;;;;;;;;;;8.89;47.32;99687.69;4923931;28;98928;-71
2024/01/14 05:26:46;;;;;;;;;;;;;;;8.88;47.27;99691.44;4941115;28;98426;-66
2024/01/14 05:29:13;;;;;;;;;;;;;;;8.88;47.04;99685.28;4926580;28;98844;-70
2024/01/14 05:31:40;;;;;;;;;;;;;;;8.88;47.08;99691.44;4937254;28;98244;-71
2024/01/14 05:34:06;;;;;;;;;;;;;;;8.88;46.74;99693.34;4926572;28;99370;-70
2024/01/14 05:36:31;;;;;;;;;;;;;;;8.88;47.03;99682.56;4927399;28;97990;-66
2024/01/14 05:38:57;;;;;;;;;;;;;;;8.88;47.02;99683.38;4927022;28;99425;-70
2024/01/14 05:41:23;;;;;;;;;;;;;;;8.87;46.39;99679.09;4927104;28;98909;-70
2024/01/14 05:43:50;;;;;;;;;;;;;;;8.88;46.69;99674.50;4925270;28;104649;-70
2024/01/14 05:46:16;;;;;;;;;;;;;;;8.88;46.69;99675.31;4929037;28;98386;-66
2024/01/14 05:48:43;;;;;;;;;;;;;;;8.88;46.71;99683.38;4917520;28;98618;-66
2024/01/14 05:51:09;;;;;;;;;;;;;;;8.87;46.66;99684.47;4926919;28;98782;-70
2024/01/14 05:53:35;;;;;;;;;;;;;;;8.87;46.62;99680.97;4939784;28;101963;-65
2024/01/14 05:56:03;;;;;;;;;;;;;;;8.88;47.12;99677.19;4928354;28;97942;-66
2024/01/14 05:58:29;;;;;;;;;;;;;;;8.86;46.87;99682.88;4929563;28;98183;-70
2024/01/14 06:00:55;;;;;;;;;;;;;;;8.86;47.25;99680.19;4928025;28;98300;-70
2024/01/14 06:03:23;;;;;;;;;;;;;;;8.86;46.81;99680.19;4926582;28;98279;-66
2024/01/14 06:05:49;;;;;;;;;;;;;;;8.84;46.99;99677.78;4944660;28;97904;-66
2024/01/14 06:08:14;;;;;;;;;;;;;;;8.83;46.73;99668.09;4925230;28;99524;-70
2024/01/14 06:10:41;;;;;;;;;;;;;;;8.83;46.81;99673.47;4930403;28;100969;-66
2024/01/14 06:13:07;;;;;;;;;;;;;;;8.84;46.88;99679.63;4928886;28;98376;-66
2024/01/14 06:15:33;;;;;;;;;;;;;;;8.83;46.83;99678.84;4924959;28;108844;-66
2024/01/14 06:17:59;;;;;;;;;;;;;;;8.83;46.65;99673.47;4929759;28;98502;-71
2024/01/14 06:20:25;;;;;;;;;;;;;;;8.83;46.84;99675.34;4927120;28;116370;-66
2024/01/14 06:22:51;;;;;;;;;;;;;;;8.83;46.74;99676.16;4954167;28;113362;-70
2024/01/14 06:25:17;;;;;;;;;;;;;;;8.83;46.72;99686.09;4941912;28;99265;-70
2024/01/14 06:27:43;;;;;;;;;;;;;;;8.83;46.84;99688.78;4930822;28;98913;-70
2024/01/14 06:30:09;;;;;;;;;;;;;;;8.83;46.51;99692.28;4928331;28;105130;-66
2024/01/14 06:32:35;;;;;;;;;;;;;;;8.83;46.77;99683.41;4939894;28;99684;-66
2024/01/14 06:35:02;;;;;;;;;;;;;;;8.84;46.32;99685.00;4938509;28;98484;-70
2024/01/14 06:37:28;;;;;;;;;;;;;;;8.84;46.64;99679.63;4940207;28;98121;-70
2024/01/14 06:39:54;;;;;;;;;;;;;;;8.85;47.36;99690.13;4925106;28;118450;-71
2024/01/14 06:42:20;;;;;;;;;;;;;;;8.84;46.71;99667.03;4921959;28;99682;-70
2024/01/14 06:44:46;;;;;;;;;;;;;;;8.85;47.19;99674.00;4935470;28;101055;-70
2024/01/14 06:47:12;;;;;;;;;;;;;;;8.86;46.74;99674.81;4920921;28;128791;-70
2024/01/14 06:49:39;;;;;;;;;;;;;;;8.86;47.33;99672.13;4939444;28;98166;-72
2024/01/14 06:52:05;;;;;;;;;;;;;;;8.87;46.71;99672.91;4931689;28;98854;-70
2024/01/14 06:54:31;;;;;;;;;;;;;;;8.88;46.43;99675.31;4934801;28;101907;-67
2024/01/14 06:56:57;;;;;;;;;;;;;;;8.88;46.76;99686.06;4931074;28;98118;-66
2024/01/14 06:59:24;;;;;;;;;;;;;;;8.89;46.89;99685.00;4917172;28;98125;-70
2024/01/14 07:01:50;;;;;;;;;;;;;;;8.89;47.04;99687.69;4919944;28;97925;-66
2024/01/14 07:04:16;;;;;;;;;;;;;;;8.89;46.40;99676.94;4931737;28;99986;-66
2024/01/14 07:06:42;;;;;;;;;;;;;;;8.90;47.11;99689.31;4919426;28;98139;-66
2024/01/14 07:09:10;;;;;;;;;;;;;;;8.91;46.90;99684.72;4936448;28;109202;-66
2024/01/14 07:11:37;;;;;;;;;;;;;;;8.90;47.39;99683.94;4923561;28;98264;-70
2024/01/14 07:14:03;;;;;;;;;;;;;;;8.91;47.04;99682.03;4919212;28;98015;-66
2024/01/14 07:16:30;;;;;;;;;;;;;;;8.92;46.38;99671.03;4919416;28;99379;-71
2024/01/14 07:18:56;;;;;;;;;;;;;;;8.91;46.79;99674.78;4921949;28;98168;-71
2024/01/14 07:21:23;;;;;;;;;;;;;;;8.93;47.00;99672.63;4923366;28;99543;-70
2024/01/14 07:23:49;;;;;;;;;;;;;;;8.93;46.79;99677.22;4938742;28;99435;-66
2024/01/14 07:26:16;;;;;;;;;;;;;;;8.95;47.14;99667.75;4922425;28;99726;-66
2024/01/14 07:28:42;;;;;;;;;;;;;;;8.96;47.12;99680.16;4926125;28;99485;-66
2024/01/14 07:31:09;;;;;;;;;;;;;;;8.95;46.59;99678.53;4935537;28;98228;-66
2024/01/14 07:33:35;;;;;;;;;;;;;;;8.98;47.46;99682.56;4922403;28;98398;-66
2024/01/14 07:36:01;;;;;;;;;;;;;;;8.98;46.37;99667.22;4937493;28;98075;-65
2024/01/14 07:38:28;;;;;;;;;;;;;;;9.00;46.70;99678.53;4920046;28;98296;-66
2024/01/14 07:40:54;;;;;;;;;;;;;;;9.01;47.09;99672.06;4923682;28;98251;-66
2024/01/14 07:43:20;;;;;;;;;;;;;;;9.02;46.96;99668.28;4926173;28;97995;-71
2024/01/14 07:45:46;;;;;;;;;;;;;;;9.03;46.75;99675.25;4921415;28;98841;-70
2024/01/14 07:48:12;;;;;;;;;;;;;;;9.04;47.23;99673.41;4932200;28;99397;-70
2024/01/14 07:50:38;;;;;;;;;;;;;;;9.06;46.91;99672.03;4923720;28;99422;-66
2024/01/14 07:53:04;;;;;;;;;;;;;;;9.06;46.92;99672.03;4918001;28;115707;-66
2024/01/14 07:55:30;;;;;;;;;;;;;;;9.06;47.17;99668.53;4938604;28;99574;-66
2024/01/14 07:57:57;;;;;;;;;;;;;;;9.07;46.42;99678.19;4919345;28;98112;-66
2024/01/14 08:00:23;;;;;;;;;;;;;;;9.06;46.79;99679.28;4924420;28;98406;-70
2024/01/14 08:02:49;;;;;;;;;;;;;;;9.08;47.39;99679.84;4936826;28;98819;-66
2024/01/14 08:05:15;;;;;;;;;;;;;;;9.07;46.63;99681.69;4923294;28;98102;-70
2024/01/14 08:07:41;;;;;;;;;;;;;;;9.08;46.90;99680.63;4924772;28;99709;-66
2024/01/14 08:10:09;;;;;;;;;;;;;;;9.12;47.02;99685.44;4937176;28;98368;-66
2024/01/14 08:12:35;;;;;;;;;;;;;;;9.14;46.97;99692.16;4928843;28;99827;-71
2024/01/14 08:15:01;;;;;;;;;;;;;;;9.18;46.74;99689.72;4922984;28;99592;-65
2024/01/14 08:17:28;;;;;;;;;;;;;;;9.23;47.04;99692.38;4937840;28;105133;-65
2024/01/14 08:19:54;;;;;;;;;;;;;;;9.30;46.33;99696.38;4925726;28;99355;-66
2024/01/14 08:22:20;;;;;;;;;;;;;;;9.33;47.42;99697.72;4924231;28;98196;-70
2024/01/14 08:24:46;;;;;;;;;;;;;;;9.31;46.85;99698.00;4936880;28;98314;-71
2024/01/14 08:27:12;;;;;;;;;;;;;;;9.31;46.97;99698.00;4936336;28;98131;-66
2024/01/14 08:29:38;;;;;;;;;;;;;;;9.30;46.69;99701.75;4927443;28;98077;-66
2024/01/14 08:32:04;;;;;;;;;;;;;;;9.31;46.96;99702.56;4929399;28;124069;-66
2024/01/14 08:34:30;;;;;;;;;;;;;;;9.29;46.53;99700.16;4942066;28;98501;-66
2024/01/14 08:36:57;;;;;;;;;;;;;;;9.31;46.91;99705.25;4938730;28;99255;-66
2024/01/14 08:39:23;;;;;;;;;;;;;;;9.31;46.55;99700.69;4938177;28;98276;-66
2024/01/14 08:41:49;;;;;;;;;;;;;;;9.32;46.75;99701.50;4935935;28;98184;-70
2024/01/14 08:44:15;;;;;;;;;;;;;;;9.31;46.72;99695.31;4924610;28;98270;-70
2024/01/14 08:46:43;;;;;;;;;;;;;;;9.34;47.35;99696.63;4936975;28;98569;-66
2024/01/14 08:49:09;;;;;;;;;;;;;;;9.37;46.71;99700.66;4920155;28;99495;-66
2024/01/14 08:51:35;;;;;;;;;;;;;;;9.43;46.53;99700.34;4923213;28;120475;-70
2024/01/14 08:54:02;;;;;;;;;;;;;;;9.48;46.87;99694.13;4923623;28;98430;-70
2024/01/14 08:56:28;;;;;;;;;;;;;;;9.50;46.32;99694.66;4925575;28;98163;-70
2024/01/14 08:58:56;;;;;;;;;;;;;;;9.52;46.54;99706.75;4930085;28;98030;-70
2024/01/14 09:01:22;;;;;;;;;;;;;;;9.54;46.86;99703.78;4921367;28;98082;-71
2024/01/14 09:03:48;;;;;;;;;;;;;;;9.55;46.93;99703.50;4939220;28;98244;-70
2024/01/14 09:06:15;;;;;;;;;;;;;;;9.60;46.72;99708.06;4919301;28;98113;-66
2024/01/14 09:08:41;;;;;;;;;;;;;;;9.69;46.34;99702.88;4936463;28;98506;-68
2024/01/14 09:11:07;;;;;;;;;;;;;;;9.72;46.42;99713.09;4928697;28;99375;-63
2024/01/14 09:13:34;;;;;;;;;;;;;;;9.73;46.79;99712.00;4938171;28;98229;-63
2024/01/14 09:16:00;;;;;;;;;;;;;;;9.71;47.14;99706.91;4935606;28;99206;-65
2024/01/14 09:18:26;;;;;;;;;;;;;;;9.70;46.83;99715.25;4923998;28;99203;-63
2024/01/14 09:20:52;;;;;;;;;;;;;;;9.70;46.99;99718.72;4938466;28;98444;-63
2024/01/14 09:23:19;;;;;;;;;;;;;;;9.70;46.56;99718.72;4926640;28;98290;-68
2024/01/14 09:25:45;;;;;;;;;;;;;;;9.68;47.09;99718.22;4922433;28;109989;-63
2024/01/14 09:28:12;;;;;;;;;;;;;;;9.71;46.94;99719.56;4928668;28;112318;-63
2024/01/14 09:30:38;;;;;;;;;;;;;;;9.75;46.87;99729.47;4916827;28;98190;-63
2024/01/14 09:33:04;;;;;;;;;;;;;;;9.80;46.39;99724.06;4926720;28;98215;-63
2024/01/14 09:35:30;;;;;;;;;;;;;;;9.77;46.71;99731.88;4921566;28;108585;-63
2024/01/14 09:37:56;;;;;;;;;;;;;;;9.75;46.60;99736.75;4925348;28;98232;-63
2024/01/14 09:40:23;;;;;;;;;;;;;;;9.75;46.63;99726.78;4933767;28;118524;-63
2024/01/14 09:42:50;;;;;;;;;;;;;;;9.80;46.77;99725.94;4931408;28;98133;-68
2024/01/14 09:45:16;;;;;;;;;;;;;;;9.89;46.17;99710.00;4920860;28;99305;-68
2024/01/14 09:47:43;;;;;;;;;;;;;;;10.02;46.19;99715.56;4922022;28;98460;-67
2024/01/14 09:50:10;;;;;;;;;;;;;;;10.12;46.12;99721.94;4920998;28;98732;-63
2024/01/14 09:52:37;;;;;;;;;;;;;;;10.21;46.49;99709.47;4936640;28;98398;-68
2024/01/14 09:55:03;;;;;;;;;;;;;;;10.30;46.47;99711.31;4936817;28;98831;-63
2024/01/14 09:57:32;;;;;;;;;;;;;;;10.39;46.29;99705.31;4920981;28;99928;-65
2024/01/14 09:59:58;;;;;;;;;;;;;;;10.55;46.51;99712.16;4917963;28;98218;-69
2024/01/14 10:02:24;;;;;;;;;;;;;;;10.58;46.42;99708.88;4938371;28;107931;-65
2024/01/14 10:04:50;;;;;;;;;;;;;;;10.59;46.01;99710.50;4918239;28;98773;-69
2024/01/14 10:07:18;;;;;;;;;;;;;;;10.52;46.45;99705.44;4920939;28;98381;-65
2024/01/14 10:09:44;;;;;;;;;;;;;;;10.47;46.65;99702.78;4934769;28;98273;-69
2024/01/14 10:12:10;;;;;;;;;;;;;;;10.41;46.57;99697.72;4936427;28;98231;-65
2024/01/14 10:14:36;;;;;;;;;;;;;;;10.36;47.05;99700.47;4920239;28;98274;-69
2024/01/14 10:17:02;;;;;;;;;;;;;;;10.32;46.59;99697.53;4938314;28;98134;-69
2024/01/14 10:19:28;;;;;;;;;;;;;;;10.26;46.57;99694.13;4935628;28;98184;-65
2024/01/14 10:21:55;;;;;;;;;;;;;;;10.24;46.88;99682.78;4923604;28;100625;-69
2024/01/14 10:24:22;;;;;;;;;;;;;;;10.28;47.00;99688.44;4917487;28;98205;-65
2024/01/14 10:26:54;;;;;;;;;;;;;;;10.34;46.70;99679.22;4924040;28;98332;-69
2024/01/14 10:29:21;;;;;;;;;;;;;;;10.46;46.86;99671.56;4940812;28;98792;-65
2024/01/14 10:31:48;;;;;;;;;;;;;;;10.49;46.55;99667.47;4937932;28;98429;-69
2024/01/14 10:34:17;;;;;;;;;;;;;;;10.52;46.14;99675.78;4921040;28;98117;-65
2024/01/14 10:36:44;;;;;;;;;;;;;;;10.48;46.72;99672.06;4938417;28;97967;-65
2024/01/14 10:39:11;;;;;;;;;;;;;;;10.50;46.75;99667.19;4918589;28;98267;-69
2024/01/14 10:41:38;;;;;;;;;;;;;;;10.51;46.83;99657.22;4938618;27;98226;-64
2024/01/14 10:44:04;;;;;;;;;;;;;;;10.52;46.70;99661.50;4931132;28;98376;-69
2024/01/14 10:46:30;;;;;;;;;;;;;;;10.62;46.63;99657.91;4924860;28;98971;-65
2024/01/14 10:49:07;;;;;;;;;;;;;;;10.75;46.25;99652.63;4925019;28;98931;-69
2024/01/14 10:51:36;;;;;;;;;;;;;;;10.93;46.43;99653.78;4939740;28;98275;-65
2024/01/14 10:54:11;;;;;;;;;;;;;;;10.93;46.46;99647.56;4923064;28;98198;-69
2024/01/14 10:56:39;;;;;;;;;;;;;;;11.18;46.03;99643.72;4939785;28;100059;-65
2024/01/14 10:59:07;;;;;;;;;;;;;;;11.27;46.22;99640.06;4939194;28;98320;-65
2024/01/14 11:01:34;;;;;;;;;;;;;;;11.33;46.10;99635.44;4923529;28;98433;-69
2024/01/14 11:04:03;;;;;;;;;;;;;;;11.47;46.16;99632.78;4940357;28;99567;-65
2024/01/14 11:06:29;;;;;;;;;;;;;;;11.39;46.00;99633.44;4937230;28;130912;-69
2024/01/14 11:08:55;;;;;;;;;;;;;;;11.26;46.18;99635.78;4954157;28;100167;-65
2024/01/14 11:11:26;;;;;;;;;;;;;;;11.20;46.32;99636.13;4940189;28;108987;-69
2024/01/14 11:14:14;;;;;;;;;;;;;;;11.09;46.52;99640.09;4926432;28;98201;-68
2024/01/14 11:16:59;;;;;;;;;;;;;;;11.08;46.51;99633.88;4927932;28;98747;-65
2024/01/14 11:19:26;;;;;;;;;;;;;;;11.13;46.64;99631.13;4938603;28;98747;-69
2024/01/14 11:22:17;;;;;;;;;;;;;;;11.10;46.50;99637.09;4938887;28;98098;-69
2024/01/14 11:24:44;;;;;;;;;;;;;;;11.14;46.32;99634.63;4924973;28;98427;-64
2024/01/14 11:27:09;;;;;;;;;;;;;;;11.24;46.55;99627.19;4936623;28;98304;-64
2024/01/14 11:29:37;;;;;;;;;;;;;;;11.33;46.29;99626.53;4936683;28;128132;-64
2024/01/14 11:32:10;;;;;;;;;;;;;;;11.40;46.26;99622.38;4925403;28;98150;-69
2024/01/14 11:34:47;;;;;;;;;;;;;;;11.32;46.24;99617.63;4922590;28;99697;-69
2024/01/14 11:37:36;;;;;;;;;;;;;;;11.26;46.53;99622.28;4974853;27;98080;-69
2024/01/14 11:40:08;;;;;;;;;;;;;;;11.29;46.35;99612.81;4940897;28;99840;-65
2024/01/14 11:42:38;;;;;;;;;;;;;;;11.34;46.37;99610.03;4954538;28;99495;-64
2024/01/14 11:45:14;;;;;;;;;;;;;;;11.38;46.45;99602.16;4926395;28;98025;-69
2024/01/14 11:47:45;;;;;;;;;;;;;;;11.34;46.50;99606.53;4957935;27;98351;-65
2024/01/14 11:50:13;;;;;;;;;;;;;;;11.31;46.48;99610.63;4925109;28;102005;-69
2024/01/14 11:52:46;;;;;;;;;;;;;;;11.30;46.52;99593.63;4935787;28;98914;-64
2024/01/14 11:55:14;;;;;;;;;;;;;;;11.26;46.76;99583.72;4924183;28;98159;-69
2024/01/14 11:57:40;;;;;;;;;;;;;;;11.22;46.69;99583.50;4933631;28;98615;-65
2024/01/14 12:00:07;;;;;;;;;;;;;;;11.22;46.69;99578.13;4921299;28;112232;-69
2024/01/14 12:02:34;;;;;;;;;;;;;;;11.18;46.63;99579.00;4945745;28;98753;-65
2024/01/14 12:05:29;;;;;;;;;;;;;;;11.11;46.62;99584.75;4938988;28;104309;-69
2024/01/14 12:07:55;;;;;;;;;;;;;;;11.07;46.91;99573.72;4937800;28;100298;-69
2024/01/14 12:10:21;;;;;;;;;;;;;;;11.10;46.55;99564.28;4923582;28;98251;-65
2024/01/14 12:12:47;;;;;;;;;;;;;;;11.03;46.60;99561.13;4931950;28;98289;-64
2024/01/14 12:15:14;;;;;;;;;;;;;;;10.96;46.64;99556.09;4941511;28;98308;-65
2024/01/14 12:17:51;;;;;;;;;;;;;;;10.92;46.66;99555.06;4941835;28;98180;-69
2024/01/14 12:20:20;;;;;;;;;;;;;;;10.87;47.11;99552.47;4939557;28;98104;-69
2024/01/14 12:22:46;;;;;;;;;;;;;;;10.83;46.91;99546.03;4920025;28;99180;-69
2024/01/14 12:25:12;;;;;;;;;;;;;;;10.85;46.82;99545.78;4920594;28;117815;-65
2024/01/14 12:27:38;;;;;;;;;;;;;;;10.82;46.67;99537.16;4937887;28;98465;-65
2024/01/14 12:30:05;;;;;;;;;;;;;;;10.79;46.70;99545.81;4940860;28;99711;-69
2024/01/14 12:32:34;;;;;;;;;;;;;;;10.75;46.91;99539.41;4938396;28;98233;-69
2024/01/14 12:35:00;;;;;;;;;;;;;;;10.74;46.65;99542.41;4938296;28;98171;-69
2024/01/14 12:37:26;;;;;;;;;;;;;;;10.74;46.80;99531.63;4918616;28;109593;-64
2024/01/14 12:39:52;;;;;;;;;;;;;;;10.71;47.07;99524.91;4923593;28;99664;-64
2024/01/14 12:42:19;;;;;;;;;;;;;;;10.68;46.90;99522.78;4936254;28;98275;-69
2024/01/14 12:44:46;;;;;;;;;;;;;;;10.66;47.02;99522.28;4935949;28;98384;-69
2024/01/14 12:47:13;;;;;;;;;;;;;;;10.65;46.71;99526.09;4939885;28;98189;-69
2024/01/14 12:49:39;;;;;;;;;;;;;;;10.62;46.71;99518.56;4925853;28;99862;-69
2024/01/14 12:52:06;;;;;;;;;;;;;;;10.56;47.25;99525.09;4927826;28;99238;-69